sensor_id;sensor_type;location;lat;lon;timestamp;temperature;humidity
18729;DHT22;9493;51.884;5.188;2023-03-26T00:02:02;8.90;99.90
18729;DHT22;9493;51.884;5.188;2023-03-26T00:04:30;8.90;99.90
18729;DHT22;9493;51.884;5.188;2023-03-26T00:07:00;8.90;99.90
18729;DHT22;9493;51.884;5.188;2023-03-26T00:09:27;8.90;99.90
18729;DHT22;9493;51.884;5.188;2023-03-26T00:11:54;8.90;99.90
18729;DHT22;9493;51.884;5.188;2023-03-26T00:14:22;8.90;99.90
18729;DHT22;9493;51.884;5.188;2023-03-26T00:16:48;8.90;99.90
18729;DHT22;9493;51.884;5.188;2023-03-26T00:19:15;8.90;99.90
18729;DHT22;9493;51.884;5.188;2023-03-26T00:21:43;8.90;99.90
18729;DHT22;9493;51.884;5.188;2023-03-26T00:24:12;8.90;99.90
18729;DHT22;9493;51.884;5.188;2023-03-26T00:26:40;8.90;99.90
18729;DHT22;9493;51.884;5.188;2023-03-26T00:29:07;8.90;99.90
18729;DHT22;9493;51.884;5.188;2023-03-26T00:31:36;8.90;99.90
18729;DHT22;9493;51.884;5.188;2023-03-26T00:34:04;8.90;99.90
18729;DHT22;9493;51.884;5.188;2023-03-26T00:36:31;8.90;99.90
18729;DHT22;9493;51.884;5.188;2023-03-26T00:39:02;8.90;99.90
18729;DHT22;9493;51.884;5.188;2023-03-26T00:41:30;8.90;99.90
18729;DHT22;9493;51.884;5.188;2023-03-26T00:43:58;8.90;99.90
18729;DHT22;9493;51.884;5.188;2023-03-26T00:46:26;8.90;99.90
18729;DHT22;9493;51.884;5.188;2023-03-26T00:48:53;8.90;99.90
18729;DHT22;9493;51.884;5.188;2023-03-26T00:51:23;8.90;99.90
18729;DHT22;9493;51.884;5.188;2023-03-26T00:53:50;8.90;99.90
18729;DHT22;9493;51.884;5.188;2023-03-26T00:56:18;8.90;99.90
18729;DHT22;9493;51.884;5.188;2023-03-26T00:58:45;8.90;99.90
18729;DHT22;9493;51.884;5.188;2023-03-26T01:01:16;8.90;99.90
18729;DHT22;9493;51.884;5.188;2023-03-26T01:03:46;8.90;99.90
18729;DHT22;9493;51.884;5.188;2023-03-26T01:06:20;8.90;99.90
18729;DHT22;9493;51.884;5.188;2023-03-26T01:08:53;8.80;99.90
18729;DHT22;9493;51.884;5.188;2023-03-26T01:11:28;8.80;99.90
18729;DHT22;9493;51.884;5.188;2023-03-26T01:13:58;8.80;99.90
18729;DHT22;9493;51.884;5.188;2023-03-26T01:16:27;8.80;99.90
18729;DHT22;9493;51.884;5.188;2023-03-26T01:18:55;8.80;99.90
18729;DHT22;9493;51.884;5.188;2023-03-26T01:21:25;8.80;99.90
18729;DHT22;9493;51.884;5.188;2023-03-26T01:23:58;8.80;99.90
18729;DHT22;9493;51.884;5.188;2023-03-26T01:26:39;8.80;99.90
18729;DHT22;9493;51.884;5.188;2023-03-26T01:29:18;8.80;99.90
18729;DHT22;9493;51.884;5.188;2023-03-26T01:31:52;8.70;99.90
18729;DHT22;9493;51.884;5.188;2023-03-26T01:34:24;8.60;99.90
18729;DHT22;9493;51.884;5.188;2023-03-26T01:36:58;8.60;99.90
18729;DHT22;9493;51.884;5.188;2023-03-26T01:39:35;8.50;99.90
18729;DHT22;9493;51.884;5.188;2023-03-26T01:42:07;8.50;99.90
18729;DHT22;9493;51.884;5.188;2023-03-26T01:44:40;8.50;99.90
18729;DHT22;9493;51.884;5.188;2023-03-26T01:47:09;8.40;99.90
18729;DHT22;9493;51.884;5.188;2023-03-26T01:49:38;8.40;99.90
18729;DHT22;9493;51.884;5.188;2023-03-26T01:52:05;8.40;99.90
18729;DHT22;9493;51.884;5.188;2023-03-26T01:54:39;8.40;99.90
18729;DHT22;9493;51.884;5.188;2023-03-26T01:57:13;8.30;99.90
18729;DHT22;9493;51.884;5.188;2023-03-26T01:59:51;8.30;99.90
18729;DHT22;9493;51.884;5.188;2023-03-26T02:02:24;8.30;99.90
18729;DHT22;9493;51.884;5.188;2023-03-26T02:04:55;8.30;99.90
18729;DHT22;9493;51.884;5.188;2023-03-26T02:07:25;8.30;99.90
18729;DHT22;9493;51.884;5.188;2023-03-26T02:09:58;8.30;99.90
18729;DHT22;9493;51.884;5.188;2023-03-26T02:12:30;8.30;99.90
18729;DHT22;9493;51.884;5.188;2023-03-26T02:14:58;8.30;99.90
18729;DHT22;9493;51.884;5.188;2023-03-26T02:17:26;8.30;99.90
18729;DHT22;9493;51.884;5.188;2023-03-26T02:19:54;8.30;99.90
18729;DHT22;9493;51.884;5.188;2023-03-26T02:22:21;8.30;99.90
18729;DHT22;9493;51.884;5.188;2023-03-26T02:24:55;8.30;99.90
18729;DHT22;9493;51.884;5.188;2023-03-26T02:27:22;8.30;99.90
18729;DHT22;9493;51.884;5.188;2023-03-26T02:29:49;8.30;99.90
18729;DHT22;9493;51.884;5.188;2023-03-26T02:32:16;8.30;99.90
18729;DHT22;9493;51.884;5.188;2023-03-26T02:34:43;8.30;99.90
18729;DHT22;9493;51.884;5.188;2023-03-26T02:37:12;8.30;99.90
18729;DHT22;9493;51.884;5.188;2023-03-26T02:39:38;8.30;99.90
18729;DHT22;9493;51.884;5.188;2023-03-26T02:42:07;8.20;99.90
18729;DHT22;9493;51.884;5.188;2023-03-26T02:44:34;8.30;99.90
18729;DHT22;9493;51.884;5.188;2023-03-26T02:47:03;8.20;99.90
18729;DHT22;9493;51.884;5.188;2023-03-26T02:49:30;8.20;99.90
18729;DHT22;9493;51.884;5.188;2023-03-26T02:51:58;8.20;99.90
18729;DHT22;9493;51.884;5.188;2023-03-26T02:54:25;8.20;99.90
18729;DHT22;9493;51.884;5.188;2023-03-26T02:56:52;8.20;99.90
18729;DHT22;9493;51.884;5.188;2023-03-26T02:59:20;8.20;99.90
18729;DHT22;9493;51.884;5.188;2023-03-26T03:01:47;8.10;99.90
18729;DHT22;9493;51.884;5.188;2023-03-26T03:04:14;8.10;99.90
18729;DHT22;9493;51.884;5.188;2023-03-26T03:06:44;8.10;99.90
18729;DHT22;9493;51.884;5.188;2023-03-26T03:09:11;8.10;99.90
18729;DHT22;9493;51.884;5.188;2023-03-26T03:11:39;8.10;99.90
18729;DHT22;9493;51.884;5.188;2023-03-26T03:14:06;8.10;99.90
18729;DHT22;9493;51.884;5.188;2023-03-26T03:16:34;8.10;99.90
18729;DHT22;9493;51.884;5.188;2023-03-26T03:19:01;8.10;99.90
18729;DHT22;9493;51.884;5.188;2023-03-26T03:21:28;8.10;99.90
18729;DHT22;9493;51.884;5.188;2023-03-26T03:23:55;8.10;99.90
18729;DHT22;9493;51.884;5.188;2023-03-26T03:26:24;8.10;99.90
18729;DHT22;9493;51.884;5.188;2023-03-26T03:28:52;8.10;99.90
18729;DHT22;9493;51.884;5.188;2023-03-26T03:31:19;8.00;99.90
18729;DHT22;9493;51.884;5.188;2023-03-26T03:33:48;8.00;99.90
18729;DHT22;9493;51.884;5.188;2023-03-26T03:36:18;8.00;99.90
18729;DHT22;9493;51.884;5.188;2023-03-26T03:38:46;8.10;99.90
18729;DHT22;9493;51.884;5.188;2023-03-26T03:41:14;8.00;99.90
18729;DHT22;9493;51.884;5.188;2023-03-26T03:43:43;8.00;99.90
18729;DHT22;9493;51.884;5.188;2023-03-26T03:46:09;8.10;99.90
18729;DHT22;9493;51.884;5.188;2023-03-26T03:48:36;8.10;99.90
18729;DHT22;9493;51.884;5.188;2023-03-26T03:51:05;8.00;99.90
18729;DHT22;9493;51.884;5.188;2023-03-26T03:53:32;8.00;99.90
18729;DHT22;9493;51.884;5.188;2023-03-26T03:56:01;8.00;99.90
18729;DHT22;9493;51.884;5.188;2023-03-26T03:58:28;8.00;99.90
18729;DHT22;9493;51.884;5.188;2023-03-26T04:00:55;7.90;99.90
18729;DHT22;9493;51.884;5.188;2023-03-26T04:03:26;7.90;99.90
18729;DHT22;9493;51.884;5.188;2023-03-26T04:05:53;7.90;99.90
18729;DHT22;9493;51.884;5.188;2023-03-26T04:08:23;7.90;99.90
18729;DHT22;9493;51.884;5.188;2023-03-26T04:10:50;7.90;99.90
18729;DHT22;9493;51.884;5.188;2023-03-26T04:13:17;7.90;99.90
18729;DHT22;9493;51.884;5.188;2023-03-26T04:15:43;7.80;99.90
18729;DHT22;9493;51.884;5.188;2023-03-26T04:18:10;7.90;99.90
18729;DHT22;9493;51.884;5.188;2023-03-26T04:20:37;7.90;99.90
18729;DHT22;9493;51.884;5.188;2023-03-26T04:23:06;7.90;99.90
18729;DHT22;9493;51.884;5.188;2023-03-26T04:25:40;7.90;99.90
18729;DHT22;9493;51.884;5.188;2023-03-26T04:28:08;7.90;99.90
18729;DHT22;9493;51.884;5.188;2023-03-26T04:30:36;7.90;99.90
18729;DHT22;9493;51.884;5.188;2023-03-26T04:33:08;7.90;99.90
18729;DHT22;9493;51.884;5.188;2023-03-26T04:35:40;7.80;99.90
18729;DHT22;9493;51.884;5.188;2023-03-26T04:38:10;7.80;99.90
18729;DHT22;9493;51.884;5.188;2023-03-26T04:40:43;7.80;99.90
18729;DHT22;9493;51.884;5.188;2023-03-26T04:43:12;7.90;99.90
18729;DHT22;9493;51.884;5.188;2023-03-26T04:45:40;7.80;99.90
18729;DHT22;9493;51.884;5.188;2023-03-26T04:48:08;7.80;99.90
18729;DHT22;9493;51.884;5.188;2023-03-26T04:50:39;7.80;99.90
18729;DHT22;9493;51.884;5.188;2023-03-26T04:53:06;7.80;99.90
18729;DHT22;9493;51.884;5.188;2023-03-26T04:55:38;7.80;99.90
18729;DHT22;9493;51.884;5.188;2023-03-26T04:58:08;7.80;99.90
18729;DHT22;9493;51.884;5.188;2023-03-26T05:00:38;7.80;99.90
18729;DHT22;9493;51.884;5.188;2023-03-26T05:03:07;7.80;99.90
18729;DHT22;9493;51.884;5.188;2023-03-26T05:05:34;7.80;99.90
18729;DHT22;9493;51.884;5.188;2023-03-26T05:08:01;7.70;99.90
18729;DHT22;9493;51.884;5.188;2023-03-26T05:10:28;7.70;99.90
18729;DHT22;9493;51.884;5.188;2023-03-26T05:12:54;7.70;99.90
18729;DHT22;9493;51.884;5.188;2023-03-26T05:15:22;7.60;99.90
18729;DHT22;9493;51.884;5.188;2023-03-26T05:17:49;7.60;99.90
18729;DHT22;9493;51.884;5.188;2023-03-26T05:20:18;7.70;99.90
18729;DHT22;9493;51.884;5.188;2023-03-26T05:22:45;7.70;99.90
18729;DHT22;9493;51.884;5.188;2023-03-26T05:25:12;7.70;99.90
18729;DHT22;9493;51.884;5.188;2023-03-26T05:27:39;7.70;99.90
18729;DHT22;9493;51.884;5.188;2023-03-26T05:30:07;7.70;99.90
18729;DHT22;9493;51.884;5.188;2023-03-26T05:32:35;7.70;99.90
18729;DHT22;9493;51.884;5.188;2023-03-26T05:35:03;7.70;99.90
18729;DHT22;9493;51.884;5.188;2023-03-26T05:37:30;7.70;99.90
18729;DHT22;9493;51.884;5.188;2023-03-26T05:39:57;7.70;99.90
18729;DHT22;9493;51.884;5.188;2023-03-26T05:42:25;7.70;99.90
18729;DHT22;9493;51.884;5.188;2023-03-26T05:44:52;7.70;99.90
18729;DHT22;9493;51.884;5.188;2023-03-26T05:47:18;7.70;99.90
18729;DHT22;9493;51.884;5.188;2023-03-26T05:49:46;7.70;99.90
18729;DHT22;9493;51.884;5.188;2023-03-26T05:52:13;7.70;99.90
18729;DHT22;9493;51.884;5.188;2023-03-26T05:54:43;7.70;99.90
18729;DHT22;9493;51.884;5.188;2023-03-26T05:57:10;7.70;99.90
18729;DHT22;9493;51.884;5.188;2023-03-26T05:59:36;7.70;99.90
18729;DHT22;9493;51.884;5.188;2023-03-26T06:02:03;7.70;99.90
18729;DHT22;9493;51.884;5.188;2023-03-26T06:04:30;7.70;99.90
18729;DHT22;9493;51.884;5.188;2023-03-26T06:06:58;7.60;99.90
18729;DHT22;9493;51.884;5.188;2023-03-26T06:09:26;7.60;99.90
18729;DHT22;9493;51.884;5.188;2023-03-26T06:11:53;7.60;99.90
18729;DHT22;9493;51.884;5.188;2023-03-26T06:14:20;7.60;99.90
18729;DHT22;9493;51.884;5.188;2023-03-26T06:16:47;7.60;99.90
18729;DHT22;9493;51.884;5.188;2023-03-26T06:19:14;7.60;99.90
18729;DHT22;9493;51.884;5.188;2023-03-26T06:21:41;7.60;99.90
18729;DHT22;9493;51.884;5.188;2023-03-26T06:24:09;7.60;99.90
18729;DHT22;9493;51.884;5.188;2023-03-26T06:26:35;7.70;99.90
18729;DHT22;9493;51.884;5.188;2023-03-26T06:29:02;7.70;99.90
18729;DHT22;9493;51.884;5.188;2023-03-26T06:31:29;7.70;99.90
18729;DHT22;9493;51.884;5.188;2023-03-26T06:33:56;7.60;99.90
18729;DHT22;9493;51.884;5.188;2023-03-26T06:36:22;7.70;99.90
18729;DHT22;9493;51.884;5.188;2023-03-26T06:38:49;7.70;99.90
18729;DHT22;9493;51.884;5.188;2023-03-26T06:41:17;7.70;99.90
18729;DHT22;9493;51.884;5.188;2023-03-26T06:43:44;7.70;99.90
18729;DHT22;9493;51.884;5.188;2023-03-26T06:46:11;7.70;99.90
18729;DHT22;9493;51.884;5.188;2023-03-26T06:48:38;7.70;99.90
18729;DHT22;9493;51.884;5.188;2023-03-26T06:51:07;7.70;99.90
18729;DHT22;9493;51.884;5.188;2023-03-26T06:53:34;7.80;99.90
18729;DHT22;9493;51.884;5.188;2023-03-26T06:56:00;7.70;99.90
18729;DHT22;9493;51.884;5.188;2023-03-26T06:58:29;7.80;99.90
18729;DHT22;9493;51.884;5.188;2023-03-26T07:00:56;7.80;99.90
18729;DHT22;9493;51.884;5.188;2023-03-26T07:03:23;7.80;99.90
18729;DHT22;9493;51.884;5.188;2023-03-26T07:05:49;7.80;99.90
18729;DHT22;9493;51.884;5.188;2023-03-26T07:08:16;7.80;99.90
18729;DHT22;9493;51.884;5.188;2023-03-26T07:10:43;7.80;99.90
18729;DHT22;9493;51.884;5.188;2023-03-26T07:13:10;7.80;99.90
18729;DHT22;9493;51.884;5.188;2023-03-26T07:15:38;7.90;99.90
18729;DHT22;9493;51.884;5.188;2023-03-26T07:18:05;7.90;99.90
18729;DHT22;9493;51.884;5.188;2023-03-26T07:20:32;7.90;99.90
18729;DHT22;9493;51.884;5.188;2023-03-26T07:22:59;7.90;99.90
18729;DHT22;9493;51.884;5.188;2023-03-26T07:25:27;7.90;99.90
18729;DHT22;9493;51.884;5.188;2023-03-26T07:27:59;7.90;99.90
18729;DHT22;9493;51.884;5.188;2023-03-26T07:30:35;7.90;99.90
18729;DHT22;9493;51.884;5.188;2023-03-26T07:33:09;7.90;99.90
18729;DHT22;9493;51.884;5.188;2023-03-26T07:35:42;8.00;99.90
18729;DHT22;9493;51.884;5.188;2023-03-26T07:38:25;8.00;99.90
18729;DHT22;9493;51.884;5.188;2023-03-26T07:41:04;8.00;99.90
18729;DHT22;9493;51.884;5.188;2023-03-26T07:43:40;8.00;99.90
18729;DHT22;9493;51.884;5.188;2023-03-26T07:46:11;8.00;99.90
18729;DHT22;9493;51.884;5.188;2023-03-26T07:48:41;8.00;99.90
18729;DHT22;9493;51.884;5.188;2023-03-26T07:51:10;8.00;99.90
18729;DHT22;9493;51.884;5.188;2023-03-26T07:53:37;8.10;99.90
18729;DHT22;9493;51.884;5.188;2023-03-26T07:56:08;8.10;99.90
18729;DHT22;9493;51.884;5.188;2023-03-26T07:58:57;8.10;99.90
18729;DHT22;9493;51.884;5.188;2023-03-26T08:01:35;8.10;99.90
18729;DHT22;9493;51.884;5.188;2023-03-26T08:06:58;8.10;99.90
18729;DHT22;9493;51.884;5.188;2023-03-26T08:09:31;8.20;99.90
18729;DHT22;9493;51.884;5.188;2023-03-26T08:12:06;8.20;99.90
18729;DHT22;9493;51.884;5.188;2023-03-26T08:14:44;8.20;99.90
18729;DHT22;9493;51.884;5.188;2023-03-26T08:17:15;8.20;99.90
18729;DHT22;9493;51.884;5.188;2023-03-26T08:19:57;8.30;99.90
18729;DHT22;9493;51.884;5.188;2023-03-26T08:22:32;8.30;99.90
18729;DHT22;9493;51.884;5.188;2023-03-26T08:25:21;8.30;99.90
18729;DHT22;9493;51.884;5.188;2023-03-26T08:28:00;8.30;99.90
18729;DHT22;9493;51.884;5.188;2023-03-26T08:30:29;8.40;99.90
18729;DHT22;9493;51.884;5.188;2023-03-26T08:32:58;8.20;99.90
18729;DHT22;9493;51.884;5.188;2023-03-26T08:35:27;8.20;99.90
18729;DHT22;9493;51.884;5.188;2023-03-26T08:37:54;8.20;99.90
18729;DHT22;9493;51.884;5.188;2023-03-26T08:40:37;8.20;99.90
18729;DHT22;9493;51.884;5.188;2023-03-26T08:43:27;8.30;99.90
18729;DHT22;9493;51.884;5.188;2023-03-26T08:46:16;8.30;99.90
18729;DHT22;9493;51.884;5.188;2023-03-26T08:49:07;8.40;99.90
18729;DHT22;9493;51.884;5.188;2023-03-26T08:54:52;8.40;99.90
18729;DHT22;9493;51.884;5.188;2023-03-26T08:57:39;8.50;99.90
18729;DHT22;9493;51.884;5.188;2023-03-26T09:00:32;8.50;99.90
18729;DHT22;9493;51.884;5.188;2023-03-26T09:06:26;8.50;99.90
18729;DHT22;9493;51.884;5.188;2023-03-26T09:12:13;8.80;99.90
18729;DHT22;9493;51.884;5.188;2023-03-26T09:15:20;8.80;99.90
18729;DHT22;9493;51.884;5.188;2023-03-26T09:18:28;8.80;99.90
18729;DHT22;9493;51.884;5.188;2023-03-26T09:21:32;9.00;99.90
18729;DHT22;9493;51.884;5.188;2023-03-26T09:24:36;9.10;99.90
18729;DHT22;9493;51.884;5.188;2023-03-26T09:27:33;9.00;99.90
18729;DHT22;9493;51.884;5.188;2023-03-26T09:30:23;8.90;99.90
18729;DHT22;9493;51.884;5.188;2023-03-26T09:33:14;9.00;99.90
18729;DHT22;9493;51.884;5.188;2023-03-26T09:35:51;9.00;99.90
18729;DHT22;9493;51.884;5.188;2023-03-26T09:38:41;9.00;99.90
18729;DHT22;9493;51.884;5.188;2023-03-26T09:41:13;9.00;99.90
18729;DHT22;9493;51.884;5.188;2023-03-26T09:46:42;9.10;99.90
18729;DHT22;9493;51.884;5.188;2023-03-26T09:49:27;9.20;99.90
18729;DHT22;9493;51.884;5.188;2023-03-26T09:52:08;9.20;99.90
18729;DHT22;9493;51.884;5.188;2023-03-26T09:58:13;9.20;99.90
18729;DHT22;9493;51.884;5.188;2023-03-26T10:00:47;9.30;99.90
18729;DHT22;9493;51.884;5.188;2023-03-26T10:03:34;9.40;99.90
18729;DHT22;9493;51.884;5.188;2023-03-26T10:06:21;9.50;99.90
18729;DHT22;9493;51.884;5.188;2023-03-26T10:09:02;9.40;99.90
18729;DHT22;9493;51.884;5.188;2023-03-26T10:11:46;9.40;99.90
18729;DHT22;9493;51.884;5.188;2023-03-26T10:14:19;9.50;99.90
18729;DHT22;9493;51.884;5.188;2023-03-26T10:17:00;9.70;99.90
18729;DHT22;9493;51.884;5.188;2023-03-26T10:19:47;9.80;99.90
18729;DHT22;9493;51.884;5.188;2023-03-26T10:22:32;9.90;99.90
18729;DHT22;9493;51.884;5.188;2023-03-26T10:25:38;9.80;99.90
18729;DHT22;9493;51.884;5.188;2023-03-26T10:28:20;9.90;99.90
18729;DHT22;9493;51.884;5.188;2023-03-26T10:31:00;9.90;99.90
18729;DHT22;9493;51.884;5.188;2023-03-26T10:33:38;10.00;99.90
18729;DHT22;9493;51.884;5.188;2023-03-26T10:36:19;10.00;99.90
18729;DHT22;9493;51.884;5.188;2023-03-26T10:41:50;9.90;99.90
18729;DHT22;9493;51.884;5.188;2023-03-26T10:44:48;10.10;99.90
18729;DHT22;9493;51.884;5.188;2023-03-26T10:47:46;9.80;99.90
18729;DHT22;9493;51.884;5.188;2023-03-26T10:50:34;9.90;99.90
18729;DHT22;9493;51.884;5.188;2023-03-26T10:53:08;10.00;99.90
18729;DHT22;9493;51.884;5.188;2023-03-26T10:55:39;10.00;99.90
18729;DHT22;9493;51.884;5.188;2023-03-26T10:58:12;10.00;99.90
18729;DHT22;9493;51.884;5.188;2023-03-26T11:00:47;10.10;99.90
18729;DHT22;9493;51.884;5.188;2023-03-26T11:03:46;10.00;99.90
18729;DHT22;9493;51.884;5.188;2023-03-26T11:06:29;9.90;99.90
18729;DHT22;9493;51.884;5.188;2023-03-26T11:09:03;10.10;99.90
18729;DHT22;9493;51.884;5.188;2023-03-26T11:11:39;10.10;99.90
18729;DHT22;9493;51.884;5.188;2023-03-26T11:14:14;10.10;99.90
18729;DHT22;9493;51.884;5.188;2023-03-26T11:16:55;10.30;99.90
18729;DHT22;9493;51.884;5.188;2023-03-26T11:19:29;10.30;99.90
18729;DHT22;9493;51.884;5.188;2023-03-26T11:22:02;10.40;99.90
18729;DHT22;9493;51.884;5.188;2023-03-26T11:24:55;10.40;99.90
18729;DHT22;9493;51.884;5.188;2023-03-26T11:27:29;10.40;99.90
18729;DHT22;9493;51.884;5.188;2023-03-26T11:30:09;10.30;99.90
18729;DHT22;9493;51.884;5.188;2023-03-26T11:32:40;10.40;99.90
18729;DHT22;9493;51.884;5.188;2023-03-26T11:35:15;10.50;99.90
18729;DHT22;9493;51.884;5.188;2023-03-26T11:37:46;10.60;99.90
18729;DHT22;9493;51.884;5.188;2023-03-26T11:40:17;10.60;99.90
18729;DHT22;9493;51.884;5.188;2023-03-26T11:42:50;10.60;99.90
18729;DHT22;9493;51.884;5.188;2023-03-26T11:45:25;10.50;99.90
18729;DHT22;9493;51.884;5.188;2023-03-26T11:47:56;10.20;99.90
18729;DHT22;9493;51.884;5.188;2023-03-26T11:50:26;10.10;99.90
18729;DHT22;9493;51.884;5.188;2023-03-26T11:52:56;10.30;99.90
18729;DHT22;9493;51.884;5.188;2023-03-26T11:55:24;10.20;99.90
18729;DHT22;9493;51.884;5.188;2023-03-26T11:57:54;10.00;99.90
18729;DHT22;9493;51.884;5.188;2023-03-26T12:00:23;10.00;99.90
18729;DHT22;9493;51.884;5.188;2023-03-26T12:02:55;10.00;99.90
18729;DHT22;9493;51.884;5.188;2023-03-26T12:05:25;10.00;99.90
18729;DHT22;9493;51.884;5.188;2023-03-26T12:07:58;10.00;99.90
18729;DHT22;9493;51.884;5.188;2023-03-26T12:10:32;10.00;99.90
18729;DHT22;9493;51.884;5.188;2023-03-26T12:13:01;10.10;99.90
18729;DHT22;9493;51.884;5.188;2023-03-26T12:15:29;10.00;99.90
18729;DHT22;9493;51.884;5.188;2023-03-26T12:17:57;10.00;99.90
18729;DHT22;9493;51.884;5.188;2023-03-26T12:20:33;9.90;99.90
18729;DHT22;9493;51.884;5.188;2023-03-26T12:23:05;9.80;99.90
18729;DHT22;9493;51.884;5.188;2023-03-26T12:25:34;9.70;99.90
18729;DHT22;9493;51.884;5.188;2023-03-26T12:28:03;9.70;99.90
18729;DHT22;9493;51.884;5.188;2023-03-26T12:30:32;9.50;99.90
18729;DHT22;9493;51.884;5.188;2023-03-26T12:33:00;9.30;99.90
18729;DHT22;9493;51.884;5.188;2023-03-26T12:35:30;9.10;99.90
